sensor_id;sensor_type;location;lat;lon;timestamp;P1;durP1;ratioP1;P2;durP2;ratioP2
86277;SDS011;76938;49.472;8.334;2024-03-06T00:02:06;11.77;;;5.53;;
86277;SDS011;76938;49.472;8.334;2024-03-06T00:04:32;12.07;;;5.25;;
86277;SDS011;76938;49.472;8.334;2024-03-06T00:07:00;9.90;;;5.40;;
86277;SDS011;76938;49.472;8.334;2024-03-06T00:09:28;12.23;;;5.20;;
86277;SDS011;76938;49.472;8.334;2024-03-06T00:11:54;9.50;;;5.43;;
86277;SDS011;76938;49.472;8.334;2024-03-06T00:14:25;14.68;;;5.90;;
86277;SDS011;76938;49.472;8.334;2024-03-06T00:16:50;13.98;;;5.80;;
86277;SDS011;76938;49.472;8.334;2024-03-06T00:19:16;10.85;;;5.40;;
86277;SDS011;76938;49.472;8.334;2024-03-06T00:21:46;11.10;;;5.78;;
86277;SDS011;76938;49.472;8.334;2024-03-06T00:24:15;11.95;;;5.60;;
86277;SDS011;76938;49.472;8.334;2024-03-06T00:26:43;10.65;;;5.53;;
86277;SDS011;76938;49.472;8.334;2024-03-06T00:29:12;12.48;;;5.80;;
86277;SDS011;76938;49.472;8.334;2024-03-06T00:31:44;11.63;;;5.75;;
86277;SDS011;76938;49.472;8.334;2024-03-06T00:34:14;10.00;;;5.60;;
86277;SDS011;76938;49.472;8.334;2024-03-06T00:36:40;12.15;;;6.20;;
86277;SDS011;76938;49.472;8.334;2024-03-06T00:39:06;13.13;;;6.15;;
86277;SDS011;76938;49.472;8.334;2024-03-06T00:41:33;12.00;;;5.68;;
86277;SDS011;76938;49.472;8.334;2024-03-06T00:43:59;13.20;;;5.53;;
86277;SDS011;76938;49.472;8.334;2024-03-06T00:46:24;11.18;;;5.68;;
86277;SDS011;76938;49.472;8.334;2024-03-06T00:48:52;9.65;;;6.00;;
86277;SDS011;76938;49.472;8.334;2024-03-06T00:51:18;11.65;;;5.75;;
86277;SDS011;76938;49.472;8.334;2024-03-06T00:53:48;12.82;;;5.95;;
86277;SDS011;76938;49.472;8.334;2024-03-06T00:56:13;12.80;;;5.77;;
86277;SDS011;76938;49.472;8.334;2024-03-06T00:58:38;11.45;;;5.95;;
86277;SDS011;76938;49.472;8.334;2024-03-06T01:01:04;9.90;;;5.50;;
86277;SDS011;76938;49.472;8.334;2024-03-06T01:03:31;12.43;;;5.45;;
86277;SDS011;76938;49.472;8.334;2024-03-06T01:05:59;11.45;;;5.68;;
86277;SDS011;76938;49.472;8.334;2024-03-06T01:08:26;10.47;;;5.20;;
86277;SDS011;76938;49.472;8.334;2024-03-06T01:10:52;9.55;;;5.25;;
86277;SDS011;76938;49.472;8.334;2024-03-06T01:13:22;12.93;;;5.68;;
86277;SDS011;76938;49.472;8.334;2024-03-06T01:15:49;14.68;;;5.72;;
86277;SDS011;76938;49.472;8.334;2024-03-06T01:18:17;11.27;;;5.27;;
86277;SDS011;76938;49.472;8.334;2024-03-06T01:20:42;11.55;;;6.03;;
86277;SDS011;76938;49.472;8.334;2024-03-06T01:23:10;10.82;;;5.82;;
86277;SDS011;76938;49.472;8.334;2024-03-06T01:25:37;12.25;;;5.30;;
86277;SDS011;76938;49.472;8.334;2024-03-06T01:28:02;14.25;;;6.40;;
86277;SDS011;76938;49.472;8.334;2024-03-06T01:30:33;12.95;;;5.22;;
86277;SDS011;76938;49.472;8.334;2024-03-06T01:33:01;11.02;;;5.80;;
86277;SDS011;76938;49.472;8.334;2024-03-06T01:35:26;12.40;;;6.45;;
86277;SDS011;76938;49.472;8.334;2024-03-06T01:37:51;16.50;;;6.97;;
86277;SDS011;76938;49.472;8.334;2024-03-06T01:40:17;11.63;;;5.80;;
86277;SDS011;76938;49.472;8.334;2024-03-06T01:42:42;11.17;;;5.97;;
86277;SDS011;76938;49.472;8.334;2024-03-06T01:45:07;11.17;;;5.53;;
86277;SDS011;76938;49.472;8.334;2024-03-06T01:47:33;13.27;;;6.30;;
86277;SDS011;76938;49.472;8.334;2024-03-06T01:50:04;16.67;;;6.47;;
86277;SDS011;76938;49.472;8.334;2024-03-06T01:52:33;12.50;;;6.32;;
86277;SDS011;76938;49.472;8.334;2024-03-06T01:55:00;14.52;;;6.38;;
86277;SDS011;76938;49.472;8.334;2024-03-06T01:57:25;12.38;;;6.72;;
86277;SDS011;76938;49.472;8.334;2024-03-06T01:59:53;13.10;;;6.70;;
86277;SDS011;76938;49.472;8.334;2024-03-06T02:02:19;17.35;;;6.57;;
86277;SDS011;76938;49.472;8.334;2024-03-06T02:04:48;14.25;;;6.70;;
86277;SDS011;76938;49.472;8.334;2024-03-06T02:07:15;12.95;;;6.07;;
86277;SDS011;76938;49.472;8.334;2024-03-06T02:09:42;12.30;;;6.20;;
86277;SDS011;76938;49.472;8.334;2024-03-06T02:12:08;14.35;;;6.72;;
86277;SDS011;76938;49.472;8.334;2024-03-06T02:14:34;13.98;;;7.07;;
86277;SDS011;76938;49.472;8.334;2024-03-06T02:17:02;11.82;;;5.82;;
86277;SDS011;76938;49.472;8.334;2024-03-06T02:19:40;11.85;;;5.38;;
86277;SDS011;76938;49.472;8.334;2024-03-06T02:22:09;11.82;;;5.80;;
86277;SDS011;76938;49.472;8.334;2024-03-06T02:24:35;12.38;;;5.72;;
86277;SDS011;76938;49.472;8.334;2024-03-06T02:27:01;11.48;;;5.80;;
86277;SDS011;76938;49.472;8.334;2024-03-06T02:29:27;11.00;;;5.20;;
86277;SDS011;76938;49.472;8.334;2024-03-06T02:31:52;10.47;;;5.27;;
86277;SDS011;76938;49.472;8.334;2024-03-06T02:34:18;9.50;;;4.80;;
86277;SDS011;76938;49.472;8.334;2024-03-06T02:36:45;13.23;;;5.97;;
86277;SDS011;76938;49.472;8.334;2024-03-06T02:39:11;11.13;;;5.30;;
86277;SDS011;76938;49.472;8.334;2024-03-06T02:41:36;10.37;;;5.17;;
86277;SDS011;76938;49.472;8.334;2024-03-06T02:44:02;8.83;;;4.93;;
86277;SDS011;76938;49.472;8.334;2024-03-06T02:46:27;9.30;;;4.68;;
86277;SDS011;76938;49.472;8.334;2024-03-06T02:48:53;10.27;;;4.72;;
86277;SDS011;76938;49.472;8.334;2024-03-06T02:51:21;10.45;;;5.07;;
86277;SDS011;76938;49.472;8.334;2024-03-06T02:53:47;9.07;;;4.93;;
86277;SDS011;76938;49.472;8.334;2024-03-06T02:56:17;11.52;;;4.60;;
86277;SDS011;76938;49.472;8.334;2024-03-06T02:58:45;10.45;;;4.68;;
86277;SDS011;76938;49.472;8.334;2024-03-06T03:01:11;9.60;;;3.97;;
86277;SDS011;76938;49.472;8.334;2024-03-06T03:03:39;9.07;;;4.15;;
86277;SDS011;76938;49.472;8.334;2024-03-06T03:06:05;8.48;;;4.03;;
86277;SDS011;76938;49.472;8.334;2024-03-06T03:08:33;9.57;;;4.53;;
86277;SDS011;76938;49.472;8.334;2024-03-06T03:10:58;11.38;;;4.45;;
86277;SDS011;76938;49.472;8.334;2024-03-06T03:13:23;8.43;;;4.28;;
86277;SDS011;76938;49.472;8.334;2024-03-06T03:15:49;10.40;;;4.57;;
86277;SDS011;76938;49.472;8.334;2024-03-06T03:18:14;9.93;;;4.55;;
86277;SDS011;76938;49.472;8.334;2024-03-06T03:20:40;16.80;;;4.60;;
86277;SDS011;76938;49.472;8.334;2024-03-06T03:23:07;9.23;;;4.53;;
86277;SDS011;76938;49.472;8.334;2024-03-06T03:25:37;8.35;;;4.22;;
86277;SDS011;76938;49.472;8.334;2024-03-06T03:28:07;11.80;;;4.53;;
86277;SDS011;76938;49.472;8.334;2024-03-06T03:30:34;7.90;;;4.60;;
86277;SDS011;76938;49.472;8.334;2024-03-06T03:33:00;10.65;;;4.80;;
86277;SDS011;76938;49.472;8.334;2024-03-06T03:35:25;9.63;;;5.07;;
86277;SDS011;76938;49.472;8.334;2024-03-06T03:37:51;9.68;;;4.82;;
86277;SDS011;76938;49.472;8.334;2024-03-06T03:40:17;11.00;;;5.65;;
86277;SDS011;76938;49.472;8.334;2024-03-06T03:42:45;9.32;;;4.80;;
86277;SDS011;76938;49.472;8.334;2024-03-06T03:45:11;15.50;;;5.80;;
86277;SDS011;76938;49.472;8.334;2024-03-06T03:47:38;9.80;;;5.20;;
86277;SDS011;76938;49.472;8.334;2024-03-06T03:50:07;13.13;;;6.03;;
86277;SDS011;76938;49.472;8.334;2024-03-06T03:52:36;10.48;;;5.13;;
86277;SDS011;76938;49.472;8.334;2024-03-06T03:55:07;12.95;;;6.15;;
86277;SDS011;76938;49.472;8.334;2024-03-06T03:57:32;9.90;;;5.05;;
86277;SDS011;76938;49.472;8.334;2024-03-06T03:59:58;9.63;;;5.07;;
86277;SDS011;76938;49.472;8.334;2024-03-06T04:02:27;10.85;;;6.00;;
86277;SDS011;76938;49.472;8.334;2024-03-06T04:04:53;13.63;;;5.80;;
86277;SDS011;76938;49.472;8.334;2024-03-06T04:07:18;13.50;;;6.40;;
86277;SDS011;76938;49.472;8.334;2024-03-06T04:09:44;10.32;;;5.03;;
86277;SDS011;76938;49.472;8.334;2024-03-06T04:12:12;10.25;;;5.22;;
86277;SDS011;76938;49.472;8.334;2024-03-06T04:14:37;12.48;;;6.15;;
86277;SDS011;76938;49.472;8.334;2024-03-06T04:17:03;10.57;;;5.43;;
86277;SDS011;76938;49.472;8.334;2024-03-06T04:19:29;10.00;;;5.15;;
86277;SDS011;76938;49.472;8.334;2024-03-06T04:21:54;10.85;;;5.70;;
86277;SDS011;76938;49.472;8.334;2024-03-06T04:24:19;12.48;;;5.95;;
86277;SDS011;76938;49.472;8.334;2024-03-06T04:26:44;12.37;;;6.10;;
86277;SDS011;76938;49.472;8.334;2024-03-06T04:29:12;9.50;;;4.87;;
86277;SDS011;76938;49.472;8.334;2024-03-06T04:31:40;11.13;;;5.57;;
86277;SDS011;76938;49.472;8.334;2024-03-06T04:34:08;11.75;;;6.00;;
86277;SDS011;76938;49.472;8.334;2024-03-06T04:36:33;11.52;;;5.30;;
86277;SDS011;76938;49.472;8.334;2024-03-06T04:38:59;14.10;;;6.43;;
86277;SDS011;76938;49.472;8.334;2024-03-06T04:41:24;11.47;;;5.90;;
86277;SDS011;76938;49.472;8.334;2024-03-06T04:43:49;14.02;;;5.75;;
86277;SDS011;76938;49.472;8.334;2024-03-06T04:46:18;11.35;;;5.05;;
86277;SDS011;76938;49.472;8.334;2024-03-06T04:48:43;9.77;;;5.82;;
86277;SDS011;76938;49.472;8.334;2024-03-06T04:51:14;10.60;;;5.07;;
86277;SDS011;76938;49.472;8.334;2024-03-06T04:53:40;11.60;;;5.53;;
86277;SDS011;76938;49.472;8.334;2024-03-06T04:56:07;12.35;;;5.75;;
86277;SDS011;76938;49.472;8.334;2024-03-06T04:58:37;11.25;;;5.55;;
86277;SDS011;76938;49.472;8.334;2024-03-06T05:01:02;10.45;;;6.20;;
86277;SDS011;76938;49.472;8.334;2024-03-06T05:03:29;13.45;;;5.88;;
86277;SDS011;76938;49.472;8.334;2024-03-06T05:05:56;11.45;;;5.72;;
86277;SDS011;76938;49.472;8.334;2024-03-06T05:08:24;13.27;;;5.75;;
86277;SDS011;76938;49.472;8.334;2024-03-06T05:10:52;12.05;;;5.47;;
86277;SDS011;76938;49.472;8.334;2024-03-06T05:13:17;9.43;;;4.73;;
86277;SDS011;76938;49.472;8.334;2024-03-06T05:15:42;10.75;;;4.63;;
86277;SDS011;76938;49.472;8.334;2024-03-06T05:18:10;10.75;;;5.25;;
86277;SDS011;76938;49.472;8.334;2024-03-06T05:20:35;12.10;;;5.28;;
86277;SDS011;76938;49.472;8.334;2024-03-06T05:23:01;10.43;;;5.23;;
86277;SDS011;76938;49.472;8.334;2024-03-06T05:25:30;10.32;;;5.18;;
86277;SDS011;76938;49.472;8.334;2024-03-06T05:27:55;9.05;;;4.72;;
86277;SDS011;76938;49.472;8.334;2024-03-06T05:30:20;12.83;;;5.10;;
86277;SDS011;76938;49.472;8.334;2024-03-06T05:32:45;11.20;;;4.60;;
86277;SDS011;76938;49.472;8.334;2024-03-06T05:35:13;10.90;;;4.72;;
86277;SDS011;76938;49.472;8.334;2024-03-06T05:37:41;10.68;;;5.72;;
86277;SDS011;76938;49.472;8.334;2024-03-06T05:40:07;11.00;;;5.35;;
86277;SDS011;76938;49.472;8.334;2024-03-06T05:42:34;11.27;;;5.15;;
86277;SDS011;76938;49.472;8.334;2024-03-06T05:44:59;10.07;;;4.70;;
86277;SDS011;76938;49.472;8.334;2024-03-06T05:47:31;11.25;;;4.55;;
86277;SDS011;76938;49.472;8.334;2024-03-06T05:49:59;9.10;;;4.47;;
86277;SDS011;76938;49.472;8.334;2024-03-06T05:52:24;9.02;;;4.18;;
86277;SDS011;76938;49.472;8.334;2024-03-06T05:54:50;12.45;;;5.00;;
86277;SDS011;76938;49.472;8.334;2024-03-06T05:57:17;8.50;;;4.43;;
86277;SDS011;76938;49.472;8.334;2024-03-06T05:59:43;10.77;;;4.00;;
86277;SDS011;76938;49.472;8.334;2024-03-06T06:02:13;6.95;;;3.53;;
86277;SDS011;76938;49.472;8.334;2024-03-06T06:04:41;7.90;;;4.07;;
86277;SDS011;76938;49.472;8.334;2024-03-06T06:07:06;7.97;;;3.92;;
86277;SDS011;76938;49.472;8.334;2024-03-06T06:09:31;9.90;;;3.87;;
86277;SDS011;76938;49.472;8.334;2024-03-06T06:11:58;7.75;;;3.13;;
86277;SDS011;76938;49.472;8.334;2024-03-06T06:14:25;6.85;;;3.08;;
86277;SDS011;76938;49.472;8.334;2024-03-06T06:16:52;7.93;;;3.33;;
86277;SDS011;76938;49.472;8.334;2024-03-06T06:19:17;8.30;;;3.50;;
86277;SDS011;76938;49.472;8.334;2024-03-06T06:21:43;8.85;;;4.80;;
86277;SDS011;76938;49.472;8.334;2024-03-06T06:24:08;8.57;;;4.70;;
86277;SDS011;76938;49.472;8.334;2024-03-06T06:26:36;7.47;;;3.33;;
86277;SDS011;76938;49.472;8.334;2024-03-06T06:29:01;7.70;;;3.53;;
86277;SDS011;76938;49.472;8.334;2024-03-06T06:31:29;6.43;;;2.97;;
86277;SDS011;76938;49.472;8.334;2024-03-06T06:33:54;9.47;;;3.80;;
86277;SDS011;76938;49.472;8.334;2024-03-06T06:36:19;5.32;;;2.58;;
86277;SDS011;76938;49.472;8.334;2024-03-06T06:38:47;7.07;;;3.33;;
86277;SDS011;76938;49.472;8.334;2024-03-06T06:41:13;6.70;;;3.17;;
86277;SDS011;76938;49.472;8.334;2024-03-06T06:43:41;8.48;;;3.20;;
86277;SDS011;76938;49.472;8.334;2024-03-06T06:46:07;10.30;;;3.77;;
86277;SDS011;76938;49.472;8.334;2024-03-06T06:48:35;6.05;;;2.85;;
86277;SDS011;76938;49.472;8.334;2024-03-06T06:51:05;12.93;;;3.33;;
86277;SDS011;76938;49.472;8.334;2024-03-06T06:53:30;5.70;;;2.72;;
86277;SDS011;76938;49.472;8.334;2024-03-06T06:55:56;6.50;;;2.70;;
86277;SDS011;76938;49.472;8.334;2024-03-06T06:58:24;10.48;;;3.35;;
86277;SDS011;76938;49.472;8.334;2024-03-06T07:00:52;8.07;;;2.67;;
86277;SDS011;76938;49.472;8.334;2024-03-06T07:03:18;4.03;;;2.30;;
86277;SDS011;76938;49.472;8.334;2024-03-06T07:05:44;6.28;;;2.90;;
86277;SDS011;76938;49.472;8.334;2024-03-06T07:08:12;5.60;;;3.08;;
86277;SDS011;76938;49.472;8.334;2024-03-06T07:10:39;7.10;;;2.88;;
86277;SDS011;76938;49.472;8.334;2024-03-06T07:13:05;6.88;;;3.22;;
86277;SDS011;76938;49.472;8.334;2024-03-06T07:15:31;10.85;;;3.95;;
86277;SDS011;76938;49.472;8.334;2024-03-06T07:17:59;6.40;;;2.97;;
86277;SDS011;76938;49.472;8.334;2024-03-06T07:20:25;9.52;;;3.33;;
86277;SDS011;76938;49.472;8.334;2024-03-06T07:22:52;10.85;;;3.83;;
86277;SDS011;76938;49.472;8.334;2024-03-06T07:25:19;6.85;;;3.17;;
86277;SDS011;76938;49.472;8.334;2024-03-06T07:27:49;6.60;;;2.60;;
86277;SDS011;76938;49.472;8.334;2024-03-06T07:30:15;8.90;;;3.55;;
86277;SDS011;76938;49.472;8.334;2024-03-06T07:32:41;8.45;;;4.03;;
86277;SDS011;76938;49.472;8.334;2024-03-06T07:35:06;12.50;;;5.13;;
86277;SDS011;76938;49.472;8.334;2024-03-06T07:37:32;10.25;;;5.43;;
86277;SDS011;76938;49.472;8.334;2024-03-06T07:39:59;20.35;;;5.72;;
86277;SDS011;76938;49.472;8.334;2024-03-06T07:42:25;12.55;;;4.78;;
86277;SDS011;76938;49.472;8.334;2024-03-06T07:44:54;9.77;;;4.75;;
86277;SDS011;76938;49.472;8.334;2024-03-06T07:47:25;11.18;;;3.92;;
86277;SDS011;76938;49.472;8.334;2024-03-06T07:49:51;10.95;;;4.45;;
86277;SDS011;76938;49.472;8.334;2024-03-06T07:52:16;7.97;;;3.93;;
86277;SDS011;76938;49.472;8.334;2024-03-06T07:54:41;8.03;;;4.20;;
86277;SDS011;76938;49.472;8.334;2024-03-06T07:57:11;8.38;;;3.63;;
86277;SDS011;76938;49.472;8.334;2024-03-06T07:59:39;7.68;;;3.60;;
86277;SDS011;76938;49.472;8.334;2024-03-06T08:02:05;6.25;;;3.50;;
86277;SDS011;76938;49.472;8.334;2024-03-06T08:04:31;10.00;;;3.38;;
86277;SDS011;76938;49.472;8.334;2024-03-06T08:06:57;7.30;;;3.53;;
86277;SDS011;76938;49.472;8.334;2024-03-06T08:09:22;8.32;;;3.35;;
86277;SDS011;76938;49.472;8.334;2024-03-06T08:11:48;7.40;;;3.70;;
86277;SDS011;76938;49.472;8.334;2024-03-06T08:14:19;8.02;;;3.97;;
86277;SDS011;76938;49.472;8.334;2024-03-06T08:16:44;9.00;;;4.20;;
86277;SDS011;76938;49.472;8.334;2024-03-06T08:19:09;8.80;;;3.97;;
86277;SDS011;76938;49.472;8.334;2024-03-06T08:21:35;8.33;;;4.03;;
86277;SDS011;76938;49.472;8.334;2024-03-06T08:24:00;10.52;;;4.30;;
86277;SDS011;76938;49.472;8.334;2024-03-06T08:26:26;10.32;;;4.07;;
86277;SDS011;76938;49.472;8.334;2024-03-06T08:28:51;9.85;;;4.10;;
86277;SDS011;76938;49.472;8.334;2024-03-06T08:31:17;7.55;;;3.90;;
86277;SDS011;76938;49.472;8.334;2024-03-06T08:33:45;7.57;;;4.00;;
86277;SDS011;76938;49.472;8.334;2024-03-06T08:36:11;9.88;;;4.40;;
86277;SDS011;76938;49.472;8.334;2024-03-06T08:38:36;6.07;;;3.53;;
86277;SDS011;76938;49.472;8.334;2024-03-06T08:41:01;9.73;;;4.03;;
86277;SDS011;76938;49.472;8.334;2024-03-06T08:43:26;8.27;;;4.60;;
86277;SDS011;76938;49.472;8.334;2024-03-06T08:45:54;8.13;;;4.75;;
86277;SDS011;76938;49.472;8.334;2024-03-06T08:48:21;7.22;;;3.92;;
86277;SDS011;76938;49.472;8.334;2024-03-06T08:50:47;7.77;;;4.60;;
86277;SDS011;76938;49.472;8.334;2024-03-06T08:53:12;8.90;;;3.47;;
86277;SDS011;76938;49.472;8.334;2024-03-06T08:55:38;6.97;;;3.70;;
86277;SDS011;76938;49.472;8.334;2024-03-06T08:58:04;5.68;;;3.67;;
86277;SDS011;76938;49.472;8.334;2024-03-06T09:00:29;7.17;;;3.20;;
86277;SDS011;76938;49.472;8.334;2024-03-06T09:02:54;5.75;;;2.55;;
86277;SDS011;76938;49.472;8.334;2024-03-06T09:05:20;7.45;;;3.42;;
86277;SDS011;76938;49.472;8.334;2024-03-06T09:07:49;8.35;;;3.35;;
86277;SDS011;76938;49.472;8.334;2024-03-06T09:10:14;7.30;;;3.55;;
86277;SDS011;76938;49.472;8.334;2024-03-06T09:12:43;7.72;;;3.20;;
86277;SDS011;76938;49.472;8.334;2024-03-06T09:15:11;8.40;;;3.50;;
86277;SDS011;76938;49.472;8.334;2024-03-06T09:17:37;9.00;;;3.50;;
86277;SDS011;76938;49.472;8.334;2024-03-06T09:20:05;5.28;;;2.53;;
86277;SDS011;76938;49.472;8.334;2024-03-06T09:22:37;6.63;;;2.80;;
86277;SDS011;76938;49.472;8.334;2024-03-06T09:25:08;7.63;;;3.38;;
86277;SDS011;76938;49.472;8.334;2024-03-06T09:27:34;7.30;;;3.00;;
86277;SDS011;76938;49.472;8.334;2024-03-06T09:30:00;6.20;;;2.45;;
86277;SDS011;76938;49.472;8.334;2024-03-06T09:32:28;6.22;;;2.78;;
86277;SDS011;76938;49.472;8.334;2024-03-06T09:34:53;6.43;;;2.90;;
86277;SDS011;76938;49.472;8.334;2024-03-06T09:37:21;5.25;;;3.00;;
86277;SDS011;76938;49.472;8.334;2024-03-06T09:39:46;4.55;;;2.55;;
86277;SDS011;76938;49.472;8.334;2024-03-06T09:42:15;6.07;;;2.35;;
86277;SDS011;76938;49.472;8.334;2024-03-06T09:44:40;5.97;;;2.60;;
86277;SDS011;76938;49.472;8.334;2024-03-06T09:47:06;8.52;;;3.08;;
86277;SDS011;76938;49.472;8.334;2024-03-06T09:49:31;5.88;;;2.53;;
86277;SDS011;76938;49.472;8.334;2024-03-06T09:51:58;7.10;;;2.90;;
86277;SDS011;76938;49.472;8.334;2024-03-06T09:54:28;6.28;;;3.20;;
86277;SDS011;76938;49.472;8.334;2024-03-06T09:56:54;6.25;;;3.45;;
86277;SDS011;76938;49.472;8.334;2024-03-06T09:59:22;9.85;;;3.30;;
86277;SDS011;76938;49.472;8.334;2024-03-06T10:06:58;6.55;;;3.13;;
86277;SDS011;76938;49.472;8.334;2024-03-06T10:09:24;7.60;;;3.10;;
86277;SDS011;76938;49.472;8.334;2024-03-06T10:11:50;6.30;;;2.60;;
86277;SDS011;76938;49.472;8.334;2024-03-06T10:14:18;8.88;;;3.28;;
86277;SDS011;76938;49.472;8.334;2024-03-06T10:16:53;6.97;;;3.45;;
86277;SDS011;76938;49.472;8.334;2024-03-06T10:19:24;11.55;;;3.80;;
86277;SDS011;76938;49.472;8.334;2024-03-06T10:21:52;9.77;;;3.90;;
86277;SDS011;76938;49.472;8.334;2024-03-06T10:24:22;5.43;;;3.35;;
86277;SDS011;76938;49.472;8.334;2024-03-06T10:26:57;6.40;;;3.20;;
86277;SDS011;76938;49.472;8.334;2024-03-06T10:29:24;7.82;;;3.50;;
86277;SDS011;76938;49.472;8.334;2024-03-06T10:34:26;8.25;;;4.38;;
86277;SDS011;76938;49.472;8.334;2024-03-06T10:39:26;11.43;;;5.38;;
86277;SDS011;76938;49.472;8.334;2024-03-06T10:41:56;12.43;;;6.63;;
86277;SDS011;76938;49.472;8.334;2024-03-06T10:44:23;14.02;;;6.65;;
86277;SDS011;76938;49.472;8.334;2024-03-06T10:49:29;13.63;;;6.55;;
86277;SDS011;76938;49.472;8.334;2024-03-06T10:51:59;14.77;;;7.50;;
86277;SDS011;76938;49.472;8.334;2024-03-06T10:54:29;13.07;;;6.38;;
86277;SDS011;76938;49.472;8.334;2024-03-06T10:56:56;13.57;;;6.82;;
86277;SDS011;76938;49.472;8.334;2024-03-06T10:59:26;13.98;;;6.78;;
86277;SDS011;76938;49.472;8.334;2024-03-06T11:01:57;17.70;;;7.90;;
86277;SDS011;76938;49.472;8.334;2024-03-06T11:04:29;14.93;;;8.02;;
86277;SDS011;76938;49.472;8.334;2024-03-06T11:07:01;12.40;;;7.10;;
86277;SDS011;76938;49.472;8.334;2024-03-06T11:09:34;14.80;;;7.28;;
86277;SDS011;76938;49.472;8.334;2024-03-06T11:12:01;14.38;;;7.70;;
86277;SDS011;76938;49.472;8.334;2024-03-06T11:14:27;15.48;;;7.20;;
86277;SDS011;76938;49.472;8.334;2024-03-06T11:17:10;17.92;;;7.97;;
86277;SDS011;76938;49.472;8.334;2024-03-06T11:28:21;17.00;;;7.85;;
86277;SDS011;76938;49.472;8.334;2024-03-06T11:33:19;14.48;;;8.07;;
86277;SDS011;76938;49.472;8.334;2024-03-06T11:41:24;15.65;;;8.13;;
86277;SDS011;76938;49.472;8.334;2024-03-06T11:43:54;16.10;;;8.73;;
86277;SDS011;76938;49.472;8.334;2024-03-06T11:46:21;15.88;;;9.07;;
86277;SDS011;76938;49.472;8.334;2024-03-06T11:48:51;14.77;;;8.15;;
86277;SDS011;76938;49.472;8.334;2024-03-06T11:51:20;16.17;;;7.95;;
86277;SDS011;76938;49.472;8.334;2024-03-06T11:53:49;15.73;;;8.27;;
86277;SDS011;76938;49.472;8.334;2024-03-06T11:56:18;14.60;;;8.32;;
86277;SDS011;76938;49.472;8.334;2024-03-06T11:58:45;17.02;;;9.65;;
86277;SDS011;76938;49.472;8.334;2024-03-06T12:01:11;18.95;;;9.57;;
86277;SDS011;76938;49.472;8.334;2024-03-06T12:03:39;16.70;;;9.50;;
86277;SDS011;76938;49.472;8.334;2024-03-06T12:06:06;15.27;;;9.63;;
86277;SDS011;76938;49.472;8.334;2024-03-06T12:08:33;14.60;;;8.88;;
86277;SDS011;76938;49.472;8.334;2024-03-06T12:11:04;16.58;;;9.30;;
86277;SDS011;76938;49.472;8.334;2024-03-06T12:13:30;16.17;;;8.75;;
86277;SDS011;76938;49.472;8.334;2024-03-06T12:15:56;13.70;;;8.30;;
86277;SDS011;76938;49.472;8.334;2024-03-06T12:18:25;13.95;;;8.55;;
86277;SDS011;76938;49.472;8.334;2024-03-06T12:20:52;16.17;;;9.13;;
86277;SDS011;76938;49.472;8.334;2024-03-06T12:23:21;14.80;;;8.17;;
86277;SDS011;76938;49.472;8.334;2024-03-06T12:28:28;17.70;;;8.90;;
86277;SDS011;76938;49.472;8.334;2024-03-06T12:30:53;15.87;;;9.17;;
86277;SDS011;76938;49.472;8.334;2024-03-06T12:33:18;15.20;;;9.25;;
86277;SDS011;76938;49.472;8.334;2024-03-06T12:35:46;19.42;;;8.30;;
86277;SDS011;76938;49.472;8.334;2024-03-06T12:38:13;15.35;;;8.27;;
86277;SDS011;76938;49.472;8.334;2024-03-06T12:40:40;13.88;;;8.82;;
86277;SDS011;76938;49.472;8.334;2024-03-06T12:43:08;13.48;;;8.40;;
86277;SDS011;76938;49.472;8.334;2024-03-06T12:45:36;12.38;;;7.53;;
86277;SDS011;76938;49.472;8.334;2024-03-06T12:48:03;12.68;;;7.43;;
86277;SDS011;76938;49.472;8.334;2024-03-06T12:50:29;14.35;;;8.10;;
86277;SDS011;76938;49.472;8.334;2024-03-06T12:52:57;15.38;;;8.75;;
86277;SDS011;76938;49.472;8.334;2024-03-06T12:55:25;18.20;;;9.10;;
86277;SDS011;76938;49.472;8.334;2024-03-06T12:57:53;12.38;;;8.00;;
86277;SDS011;76938;49.472;8.334;2024-03-06T13:00:19;14.15;;;8.20;;
86277;SDS011;76938;49.472;8.334;2024-03-06T13:02:44;14.50;;;8.45;;
86277;SDS011;76938;49.472;8.334;2024-03-06T13:05:10;12.70;;;7.57;;
86277;SDS011;76938;49.472;8.334;2024-03-06T13:07:36;13.13;;;7.40;;
86277;SDS011;76938;49.472;8.334;2024-03-06T13:10:02;16.20;;;8.20;;
86277;SDS011;76938;49.472;8.334;2024-03-06T13:12:28;14.35;;;8.43;;
86277;SDS011;76938;49.472;8.334;2024-03-06T13:14:56;15.38;;;8.35;;
86277;SDS011;76938;49.472;8.334;2024-03-06T13:17:24;14.77;;;8.32;;
86277;SDS011;76938;49.472;8.334;2024-03-06T13:19:49;12.00;;;7.60;;
86277;SDS011;76938;49.472;8.334;2024-03-06T13:22:17;13.63;;;7.05;;
86277;SDS011;76938;49.472;8.334;2024-03-06T13:24:45;12.80;;;7.35;;
86277;SDS011;76938;49.472;8.334;2024-03-06T13:27:10;13.10;;;7.70;;
86277;SDS011;76938;49.472;8.334;2024-03-06T13:29:38;12.85;;;7.85;;
86277;SDS011;76938;49.472;8.334;2024-03-06T13:32:04;12.30;;;7.13;;
86277;SDS011;76938;49.472;8.334;2024-03-06T13:34:31;14.05;;;7.05;;
86277;SDS011;76938;49.472;8.334;2024-03-06T13:36:56;14.85;;;8.13;;
86277;SDS011;76938;49.472;8.334;2024-03-06T13:39:21;17.13;;;8.40;;
86277;SDS011;76938;49.472;8.334;2024-03-06T13:41:49;15.10;;;8.43;;
86277;SDS011;76938;49.472;8.334;2024-03-06T13:44:15;14.30;;;8.35;;
86277;SDS011;76938;49.472;8.334;2024-03-06T13:46:42;14.50;;;9.68;;
86277;SDS011;76938;49.472;8.334;2024-03-06T13:49:12;18.33;;;9.43;;
86277;SDS011;76938;49.472;8.334;2024-03-06T13:52:03;16.58;;;8.93;;
86277;SDS011;76938;49.472;8.334;2024-03-06T13:54:30;16.50;;;9.88;;
86277;SDS011;76938;49.472;8.334;2024-03-06T13:56:55;15.15;;;8.35;;
86277;SDS011;76938;49.472;8.334;2024-03-06T13:59:26;17.02;;;8.93;;
86277;SDS011;76938;49.472;8.334;2024-03-06T14:01:52;17.95;;;9.43;;
86277;SDS011;76938;49.472;8.334;2024-03-06T14:04:18;15.32;;;8.07;;
86277;SDS011;76938;49.472;8.334;2024-03-06T14:06:44;18.20;;;9.57;;
86277;SDS011;76938;49.472;8.334;2024-03-06T14:09:11;16.45;;;9.60;;
86277;SDS011;76938;49.472;8.334;2024-03-06T14:11:38;14.00;;;8.75;;
86277;SDS011;76938;49.472;8.334;2024-03-06T14:14:06;12.48;;;7.95;;
86277;SDS011;76938;49.472;8.334;2024-03-06T14:16:31;16.23;;;9.30;;
86277;SDS011;76938;49.472;8.334;2024-03-06T14:18:57;18.90;;;10.13;;
86277;SDS011;76938;49.472;8.334;2024-03-06T14:21:22;18.75;;;10.30;;
86277;SDS011;76938;49.472;8.334;2024-03-06T14:23:55;19.95;;;11.52;;
86277;SDS011;76938;49.472;8.334;2024-03-06T14:26:20;18.15;;;10.30;;
86277;SDS011;76938;49.472;8.334;2024-03-06T14:28:48;20.03;;;11.13;;
86277;SDS011;76938;49.472;8.334;2024-03-06T14:31:13;18.83;;;10.23;;
86277;SDS011;76938;49.472;8.334;2024-03-06T14:33:41;17.05;;;8.85;;
86277;SDS011;76938;49.472;8.334;2024-03-06T14:36:07;17.90;;;9.60;;
86277;SDS011;76938;49.472;8.334;2024-03-06T14:38:34;17.33;;;9.25;;
86277;SDS011;76938;49.472;8.334;2024-03-06T14:40:59;14.35;;;8.55;;
86277;SDS011;76938;49.472;8.334;2024-03-06T14:43:27;16.73;;;8.70;;
86277;SDS011;76938;49.472;8.334;2024-03-06T14:45:55;15.63;;;8.80;;
86277;SDS011;76938;49.472;8.334;2024-03-06T14:48:23;15.55;;;8.48;;
86277;SDS011;76938;49.472;8.334;2024-03-06T14:50:50;19.95;;;9.02;;
86277;SDS011;76938;49.472;8.334;2024-03-06T14:53:16;23.17;;;9.23;;
86277;SDS011;76938;49.472;8.334;2024-03-06T14:55:41;17.65;;;9.85;;
86277;SDS011;76938;49.472;8.334;2024-03-06T14:58:07;18.00;;;9.32;;
86277;SDS011;76938;49.472;8.334;2024-03-06T15:00:32;19.13;;;9.23;;
86277;SDS011;76938;49.472;8.334;2024-03-06T15:03:00;18.20;;;9.43;;
86277;SDS011;76938;49.472;8.334;2024-03-06T15:05:32;17.48;;;9.07;;
86277;SDS011;76938;49.472;8.334;2024-03-06T15:07:58;17.00;;;9.40;;
86277;SDS011;76938;49.472;8.334;2024-03-06T15:10:23;16.13;;;8.93;;